createdAt,value
2022-09-12T00:01:17.846Z,2.60
2022-09-12T00:03:45.795Z,2.80
2022-09-12T00:06:23.067Z,2.30
2022-09-12T00:08:54.631Z,2.20
2022-09-12T00:11:23.218Z,2.40
2022-09-12T00:13:50.992Z,2.50
2022-09-12T00:16:25.039Z,2.50
2022-09-12T00:18:53.714Z,2.30
2022-09-12T00:21:23.210Z,2.50
2022-09-12T00:23:51.585Z,2.40
2022-09-12T00:26:21.091Z,2.60
2022-09-12T00:28:49.786Z,2.30
2022-09-12T00:31:20.213Z,2.10
2022-09-12T00:33:48.112Z,2.50
2022-09-12T00:36:21.682Z,2.60
2022-09-12T00:38:50.985Z,2.80
2022-09-12T00:41:20.497Z,2.20
2022-09-12T00:43:52.048Z,2.10
2022-09-12T00:46:36.504Z,2.50
2022-09-12T00:49:24.739Z,2.40
2022-09-12T00:51:59.254Z,2.30
2022-09-12T00:54:30.813Z,2.30
2022-09-12T00:57:03.184Z,2.50
2022-09-12T01:00:01.939Z,2.40
2022-09-12T01:02:32.296Z,2.10
2022-09-12T01:05:00.591Z,2.30
2022-09-12T01:07:29.344Z,2.20
2022-09-12T01:09:57.239Z,2.00
2022-09-12T01:12:25.931Z,2.40
2022-09-12T01:14:53.642Z,2.50
2022-09-12T01:17:21.888Z,2.40
2022-09-12T01:20:11.442Z,2.60
2022-09-12T01:23:15.130Z,2.40
2022-09-12T01:25:59.477Z,2.30
2022-09-12T01:28:27.454Z,2.60
2022-09-12T01:31:38.801Z,2.60
2022-09-12T01:34:23.263Z,2.30
2022-09-12T01:37:04.840Z,2.70
2022-09-12T01:40:04.382Z,2.90
2022-09-12T01:42:47.250Z,2.50
2022-09-12T01:45:32.179Z,2.40
2022-09-12T01:48:11.129Z,2.50
2022-09-12T01:50:54.662Z,2.70
2022-09-12T01:53:36.860Z,2.60
2022-09-12T01:56:13.351Z,2.40
2022-09-12T01:58:56.452Z,2.80
2022-09-12T02:01:29.795Z,2.90
2022-09-12T02:04:00.487Z,2.70
2022-09-12T02:06:36.844Z,3.20
2022-09-12T02:09:11.195Z,2.60
2022-09-12T02:11:43.541Z,2.80
2022-09-12T02:14:28.821Z,2.70
2022-09-12T02:17:11.944Z,2.50
2022-09-12T02:20:06.207Z,2.80
2022-09-12T02:22:37.475Z,3.20
2022-09-12T02:25:09.523Z,2.90
2022-09-12T02:27:42.613Z,2.30
2022-09-12T02:30:12.955Z,2.50
2022-09-12T02:32:59.121Z,2.90
2022-09-12T02:35:45.243Z,2.80
2022-09-12T02:38:19.233Z,2.50
2022-09-12T02:40:47.186Z,2.60
2022-09-12T02:43:15.077Z,3.10
2022-09-12T02:45:43.063Z,2.80
2022-09-12T02:48:13.269Z,2.70
2022-09-12T02:50:42.273Z,2.70
2022-09-12T02:53:11.402Z,3.10
2022-09-12T02:55:41.300Z,3.10
2022-09-12T02:58:17.449Z,2.90
2022-09-12T03:00:54.545Z,3.20
2022-09-12T03:03:43.423Z,3.10
2022-09-12T03:06:23.647Z,3.00
2022-09-12T03:09:00.350Z,2.80
2022-09-12T03:11:40.392Z,2.60
2022-09-12T03:14:30.204Z,3.00
2022-09-12T03:17:19.076Z,3.10
2022-09-12T03:20:10.895Z,3.00
2022-09-12T03:22:51.034Z,3.00
2022-09-12T03:25:25.157Z,3.00
2022-09-12T03:28:12.265Z,3.00
2022-09-12T03:30:42.652Z,2.70
2022-09-12T03:33:15.702Z,3.20
2022-09-12T03:35:43.866Z,3.20
2022-09-12T03:38:11.868Z,2.80
2022-09-12T03:40:40.116Z,2.80
2022-09-12T03:43:09.418Z,3.00
2022-09-12T03:45:37.657Z,2.90
2022-09-12T03:48:06.397Z,3.30
2022-09-12T03:50:34.519Z,3.00
2022-09-12T03:53:03.523Z,3.50
2022-09-12T03:55:31.437Z,3.10
2022-09-12T03:57:59.511Z,3.40
2022-09-12T04:00:27.487Z,3.20
2022-09-12T04:02:57.204Z,2.90
2022-09-12T04:05:26.094Z,3.50
2022-09-12T04:07:54.167Z,3.00
2022-09-12T04:10:22.764Z,3.30
2022-09-12T04:12:51.660Z,3.30
2022-09-12T04:15:19.521Z,3.10
2022-09-12T04:17:47.245Z,3.20
2022-09-12T04:20:15.592Z,3.10
2022-09-12T04:22:43.341Z,3.40
2022-09-12T04:25:11.830Z,3.60
2022-09-12T04:27:40.008Z,3.10
2022-09-12T04:30:09.001Z,3.40
2022-09-12T04:32:36.869Z,3.20
2022-09-12T04:35:05.171Z,3.60
2022-09-12T04:37:32.915Z,3.40
2022-09-12T04:40:00.718Z,3.20
2022-09-12T04:42:29.851Z,2.90
2022-09-12T04:44:57.836Z,3.50
2022-09-12T04:47:25.579Z,3.40
2022-09-12T04:49:54.116Z,3.40
2022-09-12T04:52:21.991Z,3.20
2022-09-12T04:54:49.712Z,2.90
2022-09-12T04:57:17.438Z,3.30
2022-09-12T04:59:45.179Z,29.20
2022-09-12T05:02:13.103Z,4.60
2022-09-12T05:04:40.852Z,3.60
2022-09-12T05:07:08.593Z,3.60
2022-09-12T05:09:36.313Z,3.10
2022-09-12T05:12:05.848Z,3.20
2022-09-12T05:14:34.848Z,3.40
2022-09-12T05:17:04.649Z,3.10
2022-09-12T05:19:33.065Z,3.30
2022-09-12T05:22:00.853Z,3.20
2022-09-12T05:24:29.030Z,3.20
2022-09-12T05:26:56.890Z,3.30
2022-09-12T05:29:25.686Z,3.20
2022-09-12T05:31:53.964Z,3.00
2022-09-12T05:34:22.418Z,3.10
2022-09-12T05:36:50.228Z,2.90
2022-09-12T05:39:18.720Z,3.40
2022-09-12T05:41:47.698Z,3.10
2022-09-12T05:44:15.878Z,2.90
2022-09-12T05:46:46.719Z,3.00
2022-09-12T05:49:14.729Z,3.30
2022-09-12T05:51:45.361Z,3.50
2022-09-12T05:54:15.849Z,2.90
2022-09-12T05:56:44.793Z,3.10
2022-09-12T05:59:19.654Z,3.20
2022-09-12T06:01:48.856Z,3.40
2022-09-12T06:04:17.881Z,3.20
2022-09-12T06:06:46.413Z,2.80
2022-09-12T06:09:16.944Z,3.00
2022-09-12T06:11:46.367Z,3.00
2022-09-12T06:14:17.862Z,3.00
2022-09-12T06:16:47.414Z,2.90
2022-09-12T06:19:27.776Z,2.90
2022-09-12T06:21:55.580Z,3.00
2022-09-12T06:24:23.395Z,2.80
2022-09-12T06:26:52.919Z,3.00
2022-09-12T06:29:22.177Z,3.10
2022-09-12T06:31:50.045Z,3.30
2022-09-12T06:34:17.814Z,3.40
2022-09-12T06:36:47.945Z,2.50
2022-09-12T06:39:18.681Z,3.20
2022-09-12T06:41:48.495Z,3.30
2022-09-12T06:44:19.532Z,3.20
2022-09-12T06:46:48.022Z,3.20
2022-09-12T06:49:16.003Z,2.80
2022-09-12T06:51:44.694Z,2.90
2022-09-12T06:54:14.300Z,3.10
2022-09-12T06:56:42.413Z,3.00
2022-09-12T06:59:10.342Z,3.00
2022-09-12T07:01:38.390Z,2.90
2022-09-12T07:04:06.213Z,3.30
2022-09-12T07:06:40.715Z,3.30
2022-09-12T07:09:12.723Z,3.10
2022-09-12T07:11:42.485Z,2.70
2022-09-12T07:14:13.235Z,3.30
2022-09-12T07:16:41.266Z,2.80
2022-09-12T07:19:10.093Z,2.50
2022-09-12T07:21:40.459Z,3.00
2022-09-12T07:24:10.881Z,2.70
2022-09-12T07:26:40.696Z,2.60
2022-09-12T07:32:02.625Z,2.90
2022-09-12T07:34:30.429Z,3.10
2022-09-12T07:36:58.862Z,2.80
2022-09-12T07:39:26.604Z,2.50
2022-09-12T07:41:55.006Z,2.50
2022-09-12T07:44:23.095Z,2.90
2022-09-12T07:46:50.901Z,2.90
2022-09-12T07:49:18.626Z,2.60
2022-09-12T07:51:46.381Z,2.70
2022-09-12T07:54:14.157Z,2.80
2022-09-12T07:56:41.951Z,2.70
2022-09-12T07:59:09.709Z,2.90
2022-09-12T08:01:37.650Z,2.50
2022-09-12T08:04:05.951Z,2.80
2022-09-12T08:06:36.250Z,2.70
2022-09-12T08:09:05.803Z,2.60
2022-09-12T08:11:34.932Z,2.90
2022-09-12T08:14:05.819Z,3.00
2022-09-12T08:16:35.670Z,2.90
2022-09-12T08:19:04.350Z,2.50
2022-09-12T08:21:33.236Z,2.70
2022-09-12T08:24:04.292Z,2.70
2022-09-12T08:26:34.811Z,2.90
2022-09-12T08:29:02.584Z,2.90
2022-09-12T08:31:37.119Z,2.60
2022-09-12T08:34:06.612Z,2.80
2022-09-12T08:36:35.694Z,2.80
2022-09-12T08:39:06.980Z,2.90
2022-09-12T08:41:41.380Z,2.50
2022-09-12T08:44:27.997Z,2.80
2022-09-12T08:46:58.379Z,2.90
2022-09-12T08:49:42.445Z,2.60
2022-09-12T08:52:23.241Z,2.60
2022-09-12T08:54:51.480Z,2.40
2022-09-12T08:57:19.289Z,3.10
2022-09-12T08:59:48.485Z,2.90
2022-09-12T09:02:22.412Z,2.70
2022-09-12T09:04:56.812Z,2.80
2022-09-12T09:07:25.997Z,2.60
2022-09-12T09:10:19.606Z,3.00
2022-09-12T09:13:00.922Z,3.20
2022-09-12T09:15:41.270Z,2.80
2022-09-12T09:18:32.195Z,2.80
2022-09-12T09:21:06.322Z,2.80
2022-09-12T09:23:40.395Z,3.50
2022-09-12T09:26:14.920Z,3.20
2022-09-12T09:28:49.559Z,3.20
2022-09-12T09:31:19.838Z,2.90
2022-09-12T09:33:55.224Z,3.00
2022-09-12T09:36:41.490Z,2.70
2022-09-12T09:39:34.648Z,3.30
2022-09-12T09:42:27.183Z,3.00
2022-09-12T09:45:00.354Z,3.10
2022-09-12T09:47:28.469Z,2.80
2022-09-12T09:49:56.204Z,3.30
2022-09-12T09:52:30.962Z,2.90
2022-09-12T09:55:01.891Z,3.00
2022-09-12T09:57:35.819Z,3.10
2022-09-12T10:00:27.241Z,3.00
2022-09-12T10:03:13.803Z,3.00
2022-09-12T10:05:49.089Z,3.10
2022-09-12T10:08:26.386Z,3.00
2022-09-12T10:11:27.148Z,2.90
2022-09-12T10:13:57.171Z,2.80
2022-09-12T10:16:49.102Z,2.90
2022-09-12T10:19:26.138Z,2.90
2022-09-12T10:21:56.304Z,2.60
2022-09-12T10:24:47.312Z,2.90
2022-09-12T10:27:20.578Z,3.10
2022-09-12T10:30:18.330Z,2.80
2022-09-12T10:32:52.450Z,3.10
2022-09-12T10:35:22.407Z,2.70
2022-09-12T10:38:02.650Z,2.80
2022-09-12T10:40:40.070Z,2.80
2022-09-12T10:43:42.404Z,2.80
2022-09-12T10:46:19.430Z,3.20
2022-09-12T10:48:49.362Z,2.90
2022-09-12T10:51:26.245Z,2.80
2022-09-12T10:54:05.812Z,2.80
2022-09-12T10:56:43.651Z,3.00
2022-09-12T10:59:38.874Z,2.90
2022-09-12T11:02:21.879Z,3.00
2022-09-12T11:05:11.946Z,2.70
2022-09-12T11:07:46.916Z,3.10
2022-09-12T11:10:54.500Z,2.80
2022-09-12T11:13:55.886Z,3.00
2022-09-12T11:16:48.350Z,3.40
2022-09-12T11:19:41.323Z,3.10
2022-09-12T11:22:21.845Z,3.00
2022-09-12T11:25:14.585Z,2.60
2022-09-12T11:27:48.271Z,3.10
2022-09-12T11:30:18.109Z,2.50
2022-09-12T11:33:09.310Z,2.80
2022-09-12T11:35:49.792Z,2.60
2022-09-12T11:38:23.924Z,2.60
2022-09-12T11:41:14.569Z,2.50
2022-09-12T11:43:49.021Z,2.50
2022-09-12T11:46:32.531Z,2.40
2022-09-12T11:49:09.189Z,2.50
2022-09-12T11:51:46.576Z,2.80
2022-09-12T11:54:32.869Z,2.60
2022-09-12T11:57:12.894Z,2.80
2022-09-12T11:59:47.896Z,2.80
2022-09-12T12:02:29.760Z,2.70
2022-09-12T12:05:24.222Z,2.40
2022-09-12T12:07:59.662Z,2.80
2022-09-12T12:10:38.497Z,2.60
2022-09-12T12:13:15.318Z,2.80
2022-09-12T12:15:50.560Z,2.40
2022-09-12T12:18:29.323Z,2.40
2022-09-12T12:21:21.338Z,2.50
2022-09-12T12:24:07.101Z,2.40
2022-09-12T12:26:40.751Z,2.40
2022-09-12T12:29:17.798Z,2.40
2022-09-12T12:32:03.977Z,2.40
2022-09-12T12:34:38.188Z,2.60
2022-09-12T12:37:19.387Z,2.40
2022-09-12T12:40:01.406Z,2.40
2022-09-12T12:42:32.723Z,2.20
2022-09-12T12:45:03.922Z,2.50
2022-09-12T12:47:39.415Z,2.50
2022-09-12T12:50:10.098Z,2.30
2022-09-12T12:52:54.863Z,2.50
2022-09-12T12:55:31.305Z,2.50
2022-09-12T12:58:01.394Z,2.70
2022-09-12T13:00:36.222Z,2.70
2022-09-12T13:03:06.754Z,2.70
2022-09-12T13:05:57.558Z,2.50
2022-09-12T13:08:31.601Z,2.50
2022-09-12T13:11:03.216Z,2.80
2022-09-12T13:13:38.865Z,2.60
2022-09-12T13:16:09.477Z,2.60
2022-09-12T13:18:40.545Z,2.40
2022-09-12T13:21:12.978Z,2.70
2022-09-12T13:23:42.039Z,2.50
2022-09-12T13:26:23.294Z,2.60
2022-09-12T13:29:08.576Z,2.60
2022-09-12T13:31:37.520Z,2.60
2022-09-12T13:34:08.139Z,2.50
2022-09-12T13:37:13.315Z,2.60
2022-09-12T13:40:12.347Z,2.60
2022-09-12T13:42:53.876Z,2.70
2022-09-12T13:45:24.885Z,2.70
2022-09-12T13:47:58.979Z,2.50
2022-09-12T13:50:31.976Z,2.60
2022-09-12T13:53:03.919Z,2.90
2022-09-12T13:55:39.647Z,2.80
2022-09-12T13:58:21.546Z,2.40
2022-09-12T14:01:12.077Z,2.70
2022-09-12T14:04:01.686Z,2.20
2022-09-12T14:06:46.651Z,2.40
2022-09-12T14:09:24.958Z,2.90
2022-09-12T14:11:53.792Z,2.80
2022-09-12T14:14:34.455Z,2.70
2022-09-12T14:17:31.641Z,2.40
2022-09-12T14:20:03.789Z,2.30
2022-09-12T14:22:34.043Z,2.70
2022-09-12T14:25:02.830Z,2.80
2022-09-12T14:27:45.757Z,2.30
2022-09-12T14:30:27.227Z,2.50
2022-09-12T14:33:10.421Z,2.40
2022-09-12T14:35:49.686Z,2.40
2022-09-12T14:38:22.563Z,2.30
2022-09-12T14:41:10.858Z,2.30
2022-09-12T14:43:44.294Z,2.20
2022-09-12T14:46:21.767Z,2.30
2022-09-12T14:48:54.286Z,2.20
2022-09-12T14:51:32.470Z,2.50
2022-09-12T14:54:00.858Z,2.40
2022-09-12T14:56:43.974Z,2.20
2022-09-12T14:59:33.631Z,2.20
2022-09-12T15:02:13.687Z,2.30
2022-09-12T15:04:44.458Z,2.30
2022-09-12T15:07:32.614Z,2.40
2022-09-12T15:10:16.929Z,2.20
2022-09-12T15:12:45.195Z,2.40
2022-09-12T15:15:14.686Z,2.20
2022-09-12T15:17:42.520Z,2.40
2022-09-12T15:20:11.044Z,2.20
2022-09-12T15:22:40.501Z,2.30
2022-09-12T15:25:10.817Z,2.10
2022-09-12T15:27:40.939Z,2.50
2022-09-12T15:30:10.463Z,2.40
2022-09-12T15:32:38.407Z,2.40
2022-09-12T15:35:19.673Z,2.30
2022-09-12T15:37:48.810Z,2.30
2022-09-12T15:40:17.560Z,2.40
2022-09-12T15:42:45.424Z,2.30
2022-09-12T15:45:24.503Z,2.50
2022-09-12T15:47:52.194Z,2.30
2022-09-12T15:50:20.185Z,2.40
2022-09-12T15:52:48.105Z,2.50
2022-09-12T15:55:22.535Z,3.50
2022-09-12T15:57:50.562Z,2.70
2022-09-12T16:00:18.887Z,2.40
2022-09-12T16:02:50.143Z,2.40
2022-09-12T16:05:25.149Z,2.60
2022-09-12T16:07:54.713Z,2.50
2022-09-12T16:41:55.607Z,2.80
2022-09-12T16:44:23.310Z,2.80
2022-09-12T16:46:51.186Z,3.20
2022-09-12T16:49:18.969Z,3.70
2022-09-12T16:51:47.696Z,4.10
2022-09-12T16:54:15.861Z,3.30
2022-09-12T16:56:43.905Z,3.90
2022-09-12T16:59:16.186Z,3.30
2022-09-12T17:01:45.296Z,3.40
2022-09-12T17:04:13.256Z,3.60
2022-09-12T17:06:42.058Z,3.20
2022-09-12T17:09:11.555Z,3.10
2022-09-12T17:11:39.636Z,2.80
2022-09-12T17:14:09.060Z,3.70
2022-09-12T17:16:50.794Z,3.00
2022-09-12T17:19:23.339Z,3.10
2022-09-12T17:21:51.141Z,3.30
2022-09-12T17:24:20.377Z,3.40
2022-09-12T17:26:48.230Z,3.30
2022-09-12T17:29:16.844Z,3.80
2022-09-12T17:31:45.459Z,3.60
2022-09-12T17:34:14.687Z,3.90
2022-09-12T17:36:48.334Z,4.40
2022-09-12T17:39:16.401Z,4.00
2022-09-12T17:41:45.805Z,4.20
2022-09-12T17:45:27.492Z,4.40
2022-09-12T17:47:55.236Z,4.40
2022-09-12T17:50:39.496Z,4.50
2022-09-12T17:53:08.968Z,4.40
2022-09-12T17:55:39.488Z,4.70
2022-09-12T17:58:07.939Z,5.00
2022-09-12T18:00:54.658Z,5.00
2022-09-12T18:03:23.344Z,4.60
2022-09-12T18:05:55.995Z,4.50
2022-09-12T18:08:24.588Z,4.70
2022-09-12T18:10:52.784Z,5.10
2022-09-12T18:13:20.448Z,4.80
2022-09-12T18:15:48.149Z,4.70
2022-09-12T18:18:15.920Z,5.00
2022-09-12T18:20:50.490Z,5.00
2022-09-12T18:23:18.188Z,5.40
2022-09-12T18:25:45.829Z,5.40
2022-09-12T18:28:13.533Z,5.40
2022-09-12T18:30:41.532Z,6.00
2022-09-12T18:33:09.230Z,5.80
2022-09-12T18:35:38.636Z,5.40
2022-09-12T18:38:06.309Z,6.00
2022-09-12T18:40:33.974Z,5.70
2022-09-12T18:43:01.644Z,6.00
2022-09-12T18:45:29.380Z,5.40
2022-09-12T18:47:57.968Z,6.30
2022-09-12T18:50:25.781Z,6.30
2022-09-12T18:52:57.828Z,7.10
2022-09-12T18:55:27.500Z,6.30
2022-09-12T18:57:55.633Z,5.80
2022-09-12T19:00:23.312Z,6.40
2022-09-12T19:02:51.031Z,6.40
2022-09-12T19:05:18.714Z,5.80
2022-09-12T19:07:46.429Z,6.20
2022-09-12T19:10:14.147Z,5.60
2022-09-12T19:12:41.835Z,5.80
2022-09-12T19:15:09.849Z,6.50
2022-09-12T19:17:37.636Z,6.10
2022-09-12T19:20:06.022Z,5.80
2022-09-12T19:22:33.885Z,6.20
2022-09-12T19:25:01.608Z,6.30
2022-09-12T19:27:29.264Z,6.20
2022-09-12T19:29:57.237Z,8.10
2022-09-12T19:32:24.903Z,7.90
2022-09-12T19:34:52.576Z,7.90
2022-09-12T19:37:20.251Z,7.60
2022-09-12T19:39:47.964Z,7.30
2022-09-12T19:42:15.690Z,7.00
2022-09-12T19:44:43.616Z,7.50
2022-09-12T19:47:11.388Z,7.80
2022-09-12T19:49:39.052Z,7.50
2022-09-12T19:52:06.724Z,7.30
2022-09-12T19:55:19.884Z,7.10
2022-09-12T19:57:47.641Z,7.50
2022-09-12T20:00:15.539Z,7.30
2022-09-12T20:02:43.391Z,7.70
2022-09-12T20:05:12.111Z,8.20
2022-09-12T20:07:40.219Z,8.00
2022-09-12T20:10:08.592Z,7.60
2022-09-12T20:12:36.563Z,7.50
2022-09-12T20:15:05.393Z,7.80
2022-09-12T20:17:34.866Z,7.70
2022-09-12T20:20:04.195Z,7.20
2022-09-12T20:22:36.763Z,6.90
2022-09-12T20:25:08.143Z,15.60
2022-09-12T20:27:36.581Z,10.30
2022-09-12T20:30:05.487Z,8.40
2022-09-12T20:32:34.045Z,7.40
2022-09-12T20:35:02.742Z,7.80
2022-09-12T20:37:31.221Z,7.90
2022-09-12T20:39:59.404Z,8.30
2022-09-12T20:42:29.517Z,7.90
2022-09-12T20:44:57.388Z,7.80
2022-09-12T20:47:25.701Z,10.40
2022-09-12T20:49:55.393Z,15.70
2022-09-12T20:52:23.521Z,15.20
2022-09-12T20:54:52.304Z,12.80
2022-09-12T20:57:20.135Z,9.90
2022-09-12T20:59:48.301Z,8.30
2022-09-12T21:02:16.558Z,8.00
2022-09-12T21:04:44.668Z,7.70
2022-09-12T21:07:12.450Z,7.00
2022-09-12T21:09:40.211Z,8.20
2022-09-12T21:12:08.121Z,8.50
2022-09-12T21:14:36.012Z,8.20
2022-09-12T21:17:05.353Z,7.60
2022-09-12T21:22:41.097Z,7.90
2022-09-12T21:25:09.175Z,7.90
2022-09-12T21:27:37.291Z,7.70
2022-09-12T21:30:06.243Z,7.90
2022-09-12T21:32:37.065Z,7.80
2022-09-12T21:35:06.084Z,8.40
2022-09-12T21:37:35.181Z,7.90
2022-09-12T21:40:03.554Z,7.80
2022-09-12T21:42:31.953Z,7.60
2022-09-12T21:44:59.757Z,7.70
2022-09-12T21:47:27.532Z,8.30
2022-09-12T21:49:55.969Z,8.00
2022-09-12T21:52:23.838Z,7.70
2022-09-12T21:54:51.933Z,8.00
2022-09-12T21:57:19.785Z,8.10
2022-09-12T21:59:47.655Z,8.50
2022-09-12T22:02:16.094Z,8.60
2022-09-12T22:04:44.116Z,7.70
2022-09-12T22:07:12.651Z,8.20
2022-09-12T22:09:40.676Z,8.20
2022-09-12T22:12:08.852Z,8.30
2022-09-12T22:14:37.136Z,8.00
2022-09-12T22:17:05.954Z,8.00
2022-09-12T22:19:34.433Z,7.80
2022-09-12T22:22:20.936Z,8.00
2022-09-12T22:24:48.742Z,8.30
2022-09-12T22:27:17.191Z,7.80
2022-09-12T22:29:46.159Z,7.60
2022-09-12T22:32:14.036Z,8.10
2022-09-12T22:34:41.901Z,8.00
2022-09-12T22:37:12.131Z,7.50
2022-09-12T22:39:40.765Z,7.50
2022-09-12T22:42:09.845Z,7.60
2022-09-12T22:44:37.634Z,7.60
2022-09-12T22:47:05.586Z,7.80
2022-09-12T22:49:33.553Z,7.90
2022-09-12T22:52:01.500Z,7.20
2022-09-12T22:54:29.790Z,8.10
2022-09-12T22:56:57.571Z,7.60
2022-09-12T22:59:25.361Z,7.80
2022-09-12T23:01:53.188Z,7.60
2022-09-12T23:04:21.149Z,7.50
2022-09-12T23:06:49.546Z,7.80
2022-09-12T23:09:17.415Z,7.50
2022-09-12T23:11:46.124Z,7.50
2022-09-12T23:14:14.206Z,7.30
2022-09-12T23:16:42.053Z,8.30
2022-09-12T23:19:10.002Z,8.80
2022-09-12T23:21:37.775Z,7.30
2022-09-12T23:24:05.576Z,7.00
2022-09-12T23:26:34.152Z,7.30
2022-09-12T23:29:02.729Z,8.40
2022-09-12T23:31:32.609Z,7.40
2022-09-12T23:34:03.279Z,7.30
2022-09-12T23:36:31.882Z,7.50
2022-09-12T23:39:00.029Z,8.10
2022-09-12T23:41:28.126Z,7.50
2022-09-12T23:43:56.222Z,7.10
2022-09-12T23:46:24.645Z,7.70
2022-09-12T23:48:53.515Z,7.40
2022-09-12T23:51:22.190Z,7.70
2022-09-12T23:53:50.048Z,7.20
2022-09-12T23:56:18.146Z,7.30
2022-09-12T23:58:46.133Z,7.80
